sensor_id;sensor_type;location;lat;lon;timestamp;temperature;humidity
38866;DHT22;62686;48.984;8.394;2023-12-14T05:56:13;7.70;99.90
38866;DHT22;62686;48.984;8.394;2023-12-14T05:58:58;7.70;99.90
38866;DHT22;62686;48.984;8.394;2023-12-14T06:04:44;7.70;99.90
38866;DHT22;62686;48.984;8.394;2023-12-14T06:07:15;7.70;99.90
38866;DHT22;62686;48.984;8.394;2023-12-14T06:09:47;7.70;99.90
38866;DHT22;62686;48.984;8.394;2023-12-14T06:12:25;7.70;99.90
38866;DHT22;62686;48.984;8.394;2023-12-14T06:14:55;7.60;99.90
38866;DHT22;62686;48.984;8.394;2023-12-14T06:17:28;7.60;99.90
38866;DHT22;62686;48.984;8.394;2023-12-14T06:20:03;7.60;99.90
38866;DHT22;62686;48.984;8.394;2023-12-14T06:22:47;7.60;99.90
38866;DHT22;62686;48.984;8.394;2023-12-14T06:25:26;7.50;99.90
38866;DHT22;62686;48.984;8.394;2023-12-14T06:28:06;7.50;99.90
38866;DHT22;62686;48.984;8.394;2023-12-14T06:31:05;7.60;99.90
38866;DHT22;62686;48.984;8.394;2023-12-14T06:33:45;7.60;99.90
38866;DHT22;62686;48.984;8.394;2023-12-14T06:36:21;7.60;99.90
38866;DHT22;62686;48.984;8.394;2023-12-14T06:38:58;7.60;99.90
38866;DHT22;62686;48.984;8.394;2023-12-14T06:41:33;7.60;99.90
38866;DHT22;62686;48.984;8.394;2023-12-14T06:44:10;7.50;99.90
38866;DHT22;62686;48.984;8.394;2023-12-14T06:46:46;7.50;99.90
38866;DHT22;62686;48.984;8.394;2023-12-14T06:49:17;7.40;99.90
38866;DHT22;62686;48.984;8.394;2023-12-14T06:51:48;7.40;99.90
38866;DHT22;62686;48.984;8.394;2023-12-14T06:54:18;7.40;99.90
38866;DHT22;62686;48.984;8.394;2023-12-14T06:56:50;7.30;99.90
38866;DHT22;62686;48.984;8.394;2023-12-14T06:59:43;7.20;99.90
38866;DHT22;62686;48.984;8.394;2023-12-14T07:02:15;7.20;99.90
38866;DHT22;62686;48.984;8.394;2023-12-14T07:04:44;7.20;99.90
38866;DHT22;62686;48.984;8.394;2023-12-14T07:07:20;7.10;99.90
38866;DHT22;62686;48.984;8.394;2023-12-14T07:10:08;7.20;99.90
38866;DHT22;62686;48.984;8.394;2023-12-14T07:12:40;7.30;99.90
38866;DHT22;62686;48.984;8.394;2023-12-14T07:15:16;7.30;99.90
38866;DHT22;62686;48.984;8.394;2023-12-14T07:17:50;7.30;99.90
38866;DHT22;62686;48.984;8.394;2023-12-14T07:20:32;7.30;99.90
38866;DHT22;62686;48.984;8.394;2023-12-14T07:23:03;7.30;99.90
38866;DHT22;62686;48.984;8.394;2023-12-14T07:25:34;7.30;99.90
38866;DHT22;62686;48.984;8.394;2023-12-14T07:28:21;7.40;99.90
38866;DHT22;62686;48.984;8.394;2023-12-14T07:30:57;7.40;99.90
38866;DHT22;62686;48.984;8.394;2023-12-14T07:33:31;7.40;99.90
38866;DHT22;62686;48.984;8.394;2023-12-14T07:36:06;7.40;99.90
38866;DHT22;62686;48.984;8.394;2023-12-14T07:38:53;7.40;99.90
38866;DHT22;62686;48.984;8.394;2023-12-14T07:41:25;7.50;99.90
38866;DHT22;62686;48.984;8.394;2023-12-14T07:43:59;7.50;99.90
38866;DHT22;62686;48.984;8.394;2023-12-14T07:46:34;7.60;99.90
38866;DHT22;62686;48.984;8.394;2023-12-14T07:49:08;7.60;99.90
38866;DHT22;62686;48.984;8.394;2023-12-14T07:51:48;7.60;99.90
38866;DHT22;62686;48.984;8.394;2023-12-14T07:54:18;7.70;99.90
38866;DHT22;62686;48.984;8.394;2023-12-14T07:56:56;7.70;99.90
38866;DHT22;62686;48.984;8.394;2023-12-14T07:59:41;7.70;99.90
38866;DHT22;62686;48.984;8.394;2023-12-14T08:02:18;7.70;99.90
38866;DHT22;62686;48.984;8.394;2023-12-14T08:10:13;7.70;99.90
38866;DHT22;62686;48.984;8.394;2023-12-14T08:12:49;7.70;99.90
38866;DHT22;62686;48.984;8.394;2023-12-14T15:46:35;8.50;99.90
38866;DHT22;62686;48.984;8.394;2023-12-14T16:45:41;8.30;99.90
38866;DHT22;62686;48.984;8.394;2023-12-14T16:48:12;8.10;99.90
38866;DHT22;62686;48.984;8.394;2023-12-14T16:50:41;7.90;99.90
38866;DHT22;62686;48.984;8.394;2023-12-14T16:53:09;7.70;99.90
38866;DHT22;62686;48.984;8.394;2023-12-14T17:00:57;7.50;99.90
38866;DHT22;62686;48.984;8.394;2023-12-14T17:24:41;7.30;99.90
38866;DHT22;62686;48.984;8.394;2023-12-14T17:27:11;7.20;99.90
38866;DHT22;62686;48.984;8.394;2023-12-14T17:29:39;7.10;99.90
38866;DHT22;62686;48.984;8.394;2023-12-14T17:35:11;7.00;99.90
38866;DHT22;62686;48.984;8.394;2023-12-14T17:37:39;7.00;99.90
38866;DHT22;62686;48.984;8.394;2023-12-14T17:43:12;7.00;99.90
38866;DHT22;62686;48.984;8.394;2023-12-14T17:51:00;7.00;99.90
38866;DHT22;62686;48.984;8.394;2023-12-14T17:53:29;7.00;99.90
38866;DHT22;62686;48.984;8.394;2023-12-14T17:55:58;7.00;99.90
38866;DHT22;62686;48.984;8.394;2023-12-14T17:58:28;7.00;99.90
38866;DHT22;62686;48.984;8.394;2023-12-14T18:00:57;7.00;99.90
38866;DHT22;62686;48.984;8.394;2023-12-14T18:03:28;7.00;99.90
38866;DHT22;62686;48.984;8.394;2023-12-14T18:05:58;7.10;99.90
38866;DHT22;62686;48.984;8.394;2023-12-14T18:08:28;7.10;99.90
38866;DHT22;62686;48.984;8.394;2023-12-14T18:10:56;7.10;99.90
38866;DHT22;62686;48.984;8.394;2023-12-14T18:13:25;7.10;99.90
38866;DHT22;62686;48.984;8.394;2023-12-14T18:15:55;7.10;99.90
38866;DHT22;62686;48.984;8.394;2023-12-14T18:18:24;7.10;99.90
38866;DHT22;62686;48.984;8.394;2023-12-14T18:20:53;7.10;99.90
38866;DHT22;62686;48.984;8.394;2023-12-14T18:23:22;7.10;99.90
38866;DHT22;62686;48.984;8.394;2023-12-14T18:25:50;7.10;99.90
38866;DHT22;62686;48.984;8.394;2023-12-14T18:28:19;7.10;99.90
38866;DHT22;62686;48.984;8.394;2023-12-14T18:30:48;7.00;99.90
38866;DHT22;62686;48.984;8.394;2023-12-14T18:33:18;7.00;99.90
38866;DHT22;62686;48.984;8.394;2023-12-14T18:35:46;7.00;99.90
38866;DHT22;62686;48.984;8.394;2023-12-14T18:38:18;7.00;99.90
38866;DHT22;62686;48.984;8.394;2023-12-14T18:40:47;7.00;99.90
38866;DHT22;62686;48.984;8.394;2023-12-14T18:43:16;7.00;99.90
38866;DHT22;62686;48.984;8.394;2023-12-14T18:45:44;7.00;99.90
38866;DHT22;62686;48.984;8.394;2023-12-14T18:48:13;7.00;99.90
38866;DHT22;62686;48.984;8.394;2023-12-14T19:12:48;6.70;99.90
38866;DHT22;62686;48.984;8.394;2023-12-14T19:15:17;6.60;99.90
38866;DHT22;62686;48.984;8.394;2023-12-14T19:17:46;6.50;99.90
38866;DHT22;62686;48.984;8.394;2023-12-14T19:20:15;6.40;99.90
38866;DHT22;62686;48.984;8.394;2023-12-14T19:22:43;6.40;99.90
38866;DHT22;62686;48.984;8.394;2023-12-14T19:25:12;6.40;99.90
38866;DHT22;62686;48.984;8.394;2023-12-14T19:27:41;6.30;99.90
38866;DHT22;62686;48.984;8.394;2023-12-14T19:30:20;6.30;99.90
38866;DHT22;62686;48.984;8.394;2023-12-14T19:32:49;6.30;99.90
38866;DHT22;62686;48.984;8.394;2023-12-14T19:35:19;6.20;99.90
38866;DHT22;62686;48.984;8.394;2023-12-14T19:37:48;6.20;99.90
38866;DHT22;62686;48.984;8.394;2023-12-14T19:40:17;6.20;99.90
38866;DHT22;62686;48.984;8.394;2023-12-14T19:42:51;6.10;99.90
38866;DHT22;62686;48.984;8.394;2023-12-14T19:45:26;6.10;99.90
38866;DHT22;62686;48.984;8.394;2023-12-14T19:48:09;6.10;99.90
38866;DHT22;62686;48.984;8.394;2023-12-14T19:50:40;6.10;99.90
38866;DHT22;62686;48.984;8.394;2023-12-14T19:53:11;6.10;99.90
38866;DHT22;62686;48.984;8.394;2023-12-14T19:55:41;6.10;99.90
38866;DHT22;62686;48.984;8.394;2023-12-14T19:58:10;6.10;99.90
38866;DHT22;62686;48.984;8.394;2023-12-14T20:00:47;6.10;99.90
38866;DHT22;62686;48.984;8.394;2023-12-14T20:03:16;6.10;99.90
38866;DHT22;62686;48.984;8.394;2023-12-14T20:05:50;6.10;99.90
38866;DHT22;62686;48.984;8.394;2023-12-14T20:08:24;6.10;99.90
38866;DHT22;62686;48.984;8.394;2023-12-14T20:11:06;6.10;99.90
38866;DHT22;62686;48.984;8.394;2023-12-14T20:13:43;6.10;99.90
38866;DHT22;62686;48.984;8.394;2023-12-14T20:28:29;6.10;99.90
38866;DHT22;62686;48.984;8.394;2023-12-14T20:47:56;6.20;99.90
38866;DHT22;62686;48.984;8.394;2023-12-14T20:50:31;6.20;99.90
38866;DHT22;62686;48.984;8.394;2023-12-14T21:14:54;6.20;99.90
